Schedule Details


Flight Number: CTN418
Departure: Cilipi (LDDU) at 15:55
Arrival: Frankfurt/main (EDDF) at 18:00
Route: AMUGO UL611 UVODI UL862 SABAD DCT PIKIT DCT SUBEN UQ162 PSA

Weather Information
LDDU 200900Z 02013KT 350V070 CAVOK 15/04 Q1022 BECMG 19007KT
EDDF 200850Z VRB02KT CAVOK 06/M00 Q1035 NOSIG
Schedule Frequency

Route Map